sensor_id;sensor_type;location;lat;lon;timestamp;pressure;altitude;pressure_sealevel;temperature;humidity
39309;BME280;26019;47.510;19.122;2024-02-15T00:05:48;100953.84;;;7.35;100.00
39309;BME280;26019;47.510;19.122;2024-02-15T00:15:50;100952.03;;;7.27;100.00
39309;BME280;26019;47.510;19.122;2024-02-15T00:25:52;100948.03;;;7.45;100.00
39309;BME280;26019;47.510;19.122;2024-02-15T00:35:54;100947.97;;;7.42;100.00
39309;BME280;26019;47.510;19.122;2024-02-15T00:45:56;100958.13;;;7.34;100.00
39309;BME280;26019;47.510;19.122;2024-02-15T00:55:58;100959.94;;;7.38;100.00
39309;BME280;26019;47.510;19.122;2024-02-15T01:06:00;100961.66;;;7.39;100.00
39309;BME280;26019;47.510;19.122;2024-02-15T01:16:02;100967.53;;;7.33;100.00
39309;BME280;26019;47.510;19.122;2024-02-15T01:26:04;100948.16;;;7.03;100.00
39309;BME280;26019;47.510;19.122;2024-02-15T01:36:06;100961.38;;;6.78;100.00
39309;BME280;26019;47.510;19.122;2024-02-15T01:46:09;100956.75;;;7.04;100.00
39309;BME280;26019;47.510;19.122;2024-02-15T01:56:12;100953.53;;;7.17;100.00
39309;BME280;26019;47.510;19.122;2024-02-15T02:06:15;100944.81;;;7.08;100.00
39309;BME280;26019;47.510;19.122;2024-02-15T02:26:29;100932.53;;;6.91;100.00
39309;BME280;26019;47.510;19.122;2024-02-15T02:36:32;100934.44;;;7.03;100.00
39309;BME280;26019;47.510;19.122;2024-02-15T02:46:34;100921.78;;;7.15;100.00
39309;BME280;26019;47.510;19.122;2024-02-15T02:56:37;100926.69;;;7.01;100.00
39309;BME280;26019;47.510;19.122;2024-02-15T03:06:38;100930.31;;;7.11;100.00
39309;BME280;26019;47.510;19.122;2024-02-15T03:16:44;100936.91;;;6.98;100.00
39309;BME280;26019;47.510;19.122;2024-02-15T03:26:46;100937.22;;;6.69;100.00
39309;BME280;26019;47.510;19.122;2024-02-15T03:36:48;100942.22;;;6.63;100.00
39309;BME280;26019;47.510;19.122;2024-02-15T03:46:55;100941.25;;;6.56;100.00
39309;BME280;26019;47.510;19.122;2024-02-15T03:57:00;100944.94;;;6.69;100.00
39309;BME280;26019;47.510;19.122;2024-02-15T04:07:02;100937.06;;;6.60;100.00
39309;BME280;26019;47.510;19.122;2024-02-15T04:17:06;100932.84;;;6.65;100.00
39309;BME280;26019;47.510;19.122;2024-02-15T04:27:09;100922.00;;;6.80;100.00
39309;BME280;26019;47.510;19.122;2024-02-15T04:37:13;100924.44;;;6.72;100.00
39309;BME280;26019;47.510;19.122;2024-02-15T04:47:15;100929.56;;;6.71;100.00
39309;BME280;26019;47.510;19.122;2024-02-15T04:57:17;100933.16;;;6.81;100.00
39309;BME280;26019;47.510;19.122;2024-02-15T05:07:19;100936.75;;;6.89;100.00
39309;BME280;26019;47.510;19.122;2024-02-15T05:17:21;100956.25;;;6.79;100.00
39309;BME280;26019;47.510;19.122;2024-02-15T05:27:24;100962.19;;;6.75;100.00
39309;BME280;26019;47.510;19.122;2024-02-15T05:37:25;100968.88;;;6.68;100.00
39309;BME280;26019;47.510;19.122;2024-02-15T05:47:28;100959.56;;;6.73;100.00
39309;BME280;26019;47.510;19.122;2024-02-15T05:57:30;100984.47;;;6.76;100.00
39309;BME280;26019;47.510;19.122;2024-02-15T06:07:32;100999.88;;;6.76;100.00
39309;BME280;26019;47.510;19.122;2024-02-15T06:17:37;100992.31;;;6.84;100.00
39309;BME280;26019;47.510;19.122;2024-02-15T06:27:40;100999.41;;;6.96;100.00
39309;BME280;26019;47.510;19.122;2024-02-15T06:37:44;101007.31;;;7.05;100.00
39309;BME280;26019;47.510;19.122;2024-02-15T06:48:10;101015.81;;;7.02;100.00
39309;BME280;26019;47.510;19.122;2024-02-15T06:58:19;101024.69;;;7.18;100.00
39309;BME280;26019;47.510;19.122;2024-02-15T07:08:22;101026.19;;;7.55;100.00
39309;BME280;26019;47.510;19.122;2024-02-15T07:18:26;101026.00;;;7.44;100.00
39309;BME280;26019;47.510;19.122;2024-02-15T07:28:31;101030.91;;;7.30;100.00
39309;BME280;26019;47.510;19.122;2024-02-15T07:38:32;101050.56;;;7.28;100.00
39309;BME280;26019;47.510;19.122;2024-02-15T07:48:36;101030.75;;;7.68;100.00
39309;BME280;26019;47.510;19.122;2024-02-15T07:58:42;101033.66;;;7.88;100.00
39309;BME280;26019;47.510;19.122;2024-02-15T08:08:50;101034.56;;;7.92;100.00
39309;BME280;26019;47.510;19.122;2024-02-15T08:18:55;101030.69;;;8.19;100.00
39309;BME280;26019;47.510;19.122;2024-02-15T08:28:58;101034.34;;;8.35;100.00
39309;BME280;26019;47.510;19.122;2024-02-15T08:39:00;101039.38;;;8.26;100.00
39309;BME280;26019;47.510;19.122;2024-02-15T08:49:03;101036.66;;;8.76;100.00
39309;BME280;26019;47.510;19.122;2024-02-15T08:59:05;101041.16;;;8.90;100.00
39309;BME280;26019;47.510;19.122;2024-02-15T09:09:07;101061.50;;;8.71;100.00
39309;BME280;26019;47.510;19.122;2024-02-15T09:19:09;101042.78;;;9.63;100.00
39309;BME280;26019;47.510;19.122;2024-02-15T09:29:13;101041.41;;;10.02;95.42
39309;BME280;26019;47.510;19.122;2024-02-15T09:39:20;101052.72;;;10.17;90.40
39309;BME280;26019;47.510;19.122;2024-02-15T09:49:24;101051.09;;;10.33;85.76
39309;BME280;26019;47.510;19.122;2024-02-15T09:59:27;101055.63;;;10.67;86.36
39309;BME280;26019;47.510;19.122;2024-02-15T10:09:31;101047.06;;;10.74;86.03
39309;BME280;26019;47.510;19.122;2024-02-15T10:19:34;101043.69;;;10.94;85.27
39309;BME280;26019;47.510;19.122;2024-02-15T10:29:36;101042.72;;;10.70;81.92
39309;BME280;26019;47.510;19.122;2024-02-15T10:39:39;101031.84;;;12.07;72.15
39309;BME280;26019;47.510;19.122;2024-02-15T10:49:46;101026.53;;;12.73;68.57
39309;BME280;26019;47.510;19.122;2024-02-15T10:59:57;101030.13;;;12.13;64.22
39309;BME280;26019;47.510;19.122;2024-02-15T11:10:00;101028.16;;;12.92;61.55
39309;BME280;26019;47.510;19.122;2024-02-15T11:20:03;101028.38;;;12.12;63.05
39309;BME280;26019;47.510;19.122;2024-02-15T11:30:31;101018.91;;;12.06;58.99
39309;BME280;26019;47.510;19.122;2024-02-15T11:50:47;101008.03;;;13.41;55.46
39309;BME280;26019;47.510;19.122;2024-02-15T12:00:49;101006.75;;;13.95;52.47
39309;BME280;26019;47.510;19.122;2024-02-15T12:11:14;100996.44;;;13.88;53.60
39309;BME280;26019;47.510;19.122;2024-02-15T12:21:37;100986.97;;;13.80;52.11
39309;BME280;26019;47.510;19.122;2024-02-15T12:31:43;100974.13;;;13.59;52.31
39309;BME280;26019;47.510;19.122;2024-02-15T12:41:49;100967.50;;;14.21;51.16
39309;BME280;26019;47.510;19.122;2024-02-15T12:51:54;100955.03;;;13.70;51.95
39309;BME280;26019;47.510;19.122;2024-02-15T13:01:56;100953.69;;;13.16;53.96
39309;BME280;26019;47.510;19.122;2024-02-15T13:11:58;100954.75;;;12.75;54.96
39309;BME280;26019;47.510;19.122;2024-02-15T13:22:00;100956.59;;;12.43;55.65
39309;BME280;26019;47.510;19.122;2024-02-15T13:32:02;100950.66;;;11.94;56.60
39309;BME280;26019;47.510;19.122;2024-02-15T13:42:05;100934.16;;;12.42;57.20
39309;BME280;26019;47.510;19.122;2024-02-15T13:52:08;100941.19;;;11.78;58.40
39309;BME280;26019;47.510;19.122;2024-02-15T14:02:14;100938.59;;;11.89;62.03
39309;BME280;26019;47.510;19.122;2024-02-15T14:12:16;100937.63;;;12.36;58.43
39309;BME280;26019;47.510;19.122;2024-02-15T14:22:19;100931.66;;;12.14;60.73
39309;BME280;26019;47.510;19.122;2024-02-15T14:32:26;100923.88;;;12.19;60.88
39309;BME280;26019;47.510;19.122;2024-02-15T14:42:47;100925.69;;;11.38;67.91
39309;BME280;26019;47.510;19.122;2024-02-15T14:52:57;100936.03;;;11.56;68.48
39309;BME280;26019;47.510;19.122;2024-02-15T15:02:59;100929.09;;;11.32;71.15
39309;BME280;26019;47.510;19.122;2024-02-15T15:13:02;100929.13;;;11.24;72.58
39309;BME280;26019;47.510;19.122;2024-02-15T15:23:05;100924.75;;;10.87;75.20
39309;BME280;26019;47.510;19.122;2024-02-15T15:33:08;100916.06;;;10.67;78.27
39309;BME280;26019;47.510;19.122;2024-02-15T15:43:12;100925.41;;;10.38;85.60
39309;BME280;26019;47.510;19.122;2024-02-15T15:53:15;100929.78;;;10.50;83.10
39309;BME280;26019;47.510;19.122;2024-02-15T16:03:19;100933.94;;;10.20;86.27
39309;BME280;26019;47.510;19.122;2024-02-15T16:13:29;100927.78;;;10.02;90.44
39309;BME280;26019;47.510;19.122;2024-02-15T16:23:31;100927.84;;;10.12;90.74
39309;BME280;26019;47.510;19.122;2024-02-15T16:33:34;100933.75;;;9.91;93.15
39309;BME280;26019;47.510;19.122;2024-02-15T16:43:36;100945.00;;;10.00;94.67
39309;BME280;26019;47.510;19.122;2024-02-15T16:53:39;100950.09;;;9.94;97.32
39309;BME280;26019;47.510;19.122;2024-02-15T17:03:43;100968.19;;;9.97;100.00
39309;BME280;26019;47.510;19.122;2024-02-15T17:13:46;100969.09;;;9.99;100.00
39309;BME280;26019;47.510;19.122;2024-02-15T17:23:49;100981.06;;;9.88;100.00
39309;BME280;26019;47.510;19.122;2024-02-15T17:33:52;100988.78;;;9.85;100.00
39309;BME280;26019;47.510;19.122;2024-02-15T17:43:54;101000.75;;;9.75;100.00
39309;BME280;26019;47.510;19.122;2024-02-15T17:54:01;100997.31;;;9.79;100.00
39309;BME280;26019;47.510;19.122;2024-02-15T18:04:04;101000.66;;;9.67;100.00
39309;BME280;26019;47.510;19.122;2024-02-15T18:14:07;100987.72;;;9.61;100.00
39309;BME280;26019;47.510;19.122;2024-02-15T18:24:10;100989.44;;;9.62;100.00
39309;BME280;26019;47.510;19.122;2024-02-15T18:34:13;100989.41;;;9.56;100.00
39309;BME280;26019;47.510;19.122;2024-02-15T18:44:16;100988.34;;;9.35;100.00
39309;BME280;26019;47.510;19.122;2024-02-15T18:54:20;100989.13;;;9.25;100.00
39309;BME280;26019;47.510;19.122;2024-02-15T19:04:24;100994.22;;;9.20;100.00
39309;BME280;26019;47.510;19.122;2024-02-15T19:14:28;100983.84;;;9.16;100.00
39309;BME280;26019;47.510;19.122;2024-02-15T19:24:33;100981.03;;;8.92;100.00
39309;BME280;26019;47.510;19.122;2024-02-15T19:34:36;100978.28;;;8.78;100.00
39309;BME280;26019;47.510;19.122;2024-02-15T19:44:47;100994.47;;;8.66;100.00
39309;BME280;26019;47.510;19.122;2024-02-15T19:54:53;100997.94;;;8.70;100.00
39309;BME280;26019;47.510;19.122;2024-02-15T20:04:56;100997.16;;;8.77;100.00
39309;BME280;26019;47.510;19.122;2024-02-15T20:15:03;101006.69;;;8.83;100.00
39309;BME280;26019;47.510;19.122;2024-02-15T20:25:05;101003.16;;;8.75;100.00
39309;BME280;26019;47.510;19.122;2024-02-15T20:35:11;101013.56;;;8.84;100.00
39309;BME280;26019;47.510;19.122;2024-02-15T20:45:17;101011.84;;;8.81;100.00
39309;BME280;26019;47.510;19.122;2024-02-15T20:55:21;101012.31;;;8.52;100.00
39309;BME280;26019;47.510;19.122;2024-02-15T21:05:23;101012.16;;;8.43;100.00
39309;BME280;26019;47.510;19.122;2024-02-15T21:15:26;101011.44;;;8.50;100.00
39309;BME280;26019;47.510;19.122;2024-02-15T21:25:31;101013.97;;;8.49;100.00
39309;BME280;26019;47.510;19.122;2024-02-15T21:35:56;101008.06;;;8.55;100.00
39309;BME280;26019;47.510;19.122;2024-02-15T21:45:58;101008.72;;;8.44;100.00
39309;BME280;26019;47.510;19.122;2024-02-15T21:56:02;101002.56;;;8.33;100.00
39309;BME280;26019;47.510;19.122;2024-02-15T22:06:06;101008.72;;;8.44;100.00
39309;BME280;26019;47.510;19.122;2024-02-15T22:16:08;101005.44;;;8.51;100.00
39309;BME280;26019;47.510;19.122;2024-02-15T22:26:16;100998.44;;;8.46;100.00
39309;BME280;26019;47.510;19.122;2024-02-15T22:36:23;101016.44;;;8.43;100.00
39309;BME280;26019;47.510;19.122;2024-02-15T22:46:25;101016.59;;;8.50;100.00
39309;BME280;26019;47.510;19.122;2024-02-15T22:56:27;101007.16;;;8.52;100.00
39309;BME280;26019;47.510;19.122;2024-02-15T23:06:29;100996.81;;;8.49;100.00
39309;BME280;26019;47.510;19.122;2024-02-15T23:16:32;100993.22;;;8.41;100.00
39309;BME280;26019;47.510;19.122;2024-02-15T23:26:41;100998.25;;;8.32;100.00
39309;BME280;26019;47.510;19.122;2024-02-15T23:36:43;101005.16;;;8.34;100.00
39309;BME280;26019;47.510;19.122;2024-02-15T23:47:03;101000.03;;;8.34;100.00
39309;BME280;26019;47.510;19.122;2024-02-15T23:57:06;101000.06;;;8.39;100.00
